Time;durP1;ratioP1;P1;durP2;ratioP2;P2;SDS_P1;SDS_P2;PMS_P1;PMS_P2;Temp;Humidity;BMP_temperature;BMP_pressure;BME280_temperature;BME280_humidity;BME280_pressure;Samples;Min_cycle;Max_cycle;Signal;HPM_P1;HPM_P2
2022/04/28 00:02:16;;;;;;;4.63;2.90;;;;;;;14.72;58.26;95384.94;5063164;28;20025;-73
2022/04/28 00:04:42;;;;;;;9.02;2.97;;;;;;;14.73;58.26;95386.63;5061811;28;20032;-74
2022/04/28 00:07:07;;;;;;;4.50;2.60;;;;;;;14.68;58.39;95381.84;5061881;28;20020;-74
2022/04/28 00:09:32;;;;;;;6.63;2.58;;;;;;;14.64;58.31;95394.06;5063289;28;20049;-72
2022/04/28 00:11:58;;;;;;;4.60;2.83;;;;;;;14.61;58.53;95399.03;5062615;28;20051;-73
2022/04/28 00:14:23;;;;;;;5.60;2.58;;;;;;;14.60;58.69;95400.91;5012013;28;20028;-73
2022/04/28 00:16:49;;;;;;;6.63;2.80;;;;;;;14.50;59.05;95404.00;5061183;28;20032;-72
2022/04/28 00:19:14;;;;;;;6.90;3.10;;;;;;;14.44;58.91;95404.81;5062323;28;20025;-75
2022/04/28 00:21:40;;;;;;;7.07;2.95;;;;;;;14.36;59.52;95411.22;5062786;28;20036;-73
2022/04/28 00:24:05;;;;;;;8.55;3.15;;;;;;;14.26;59.76;95408.06;5063619;28;20036;-74
2022/04/28 00:26:31;;;;;;;7.53;3.25;;;;;;;14.25;60.06;95414.50;5062133;28;20025;-72
2022/04/28 00:28:56;;;;;;;6.47;3.72;;;;;;;14.26;60.10;95406.19;5061945;28;20025;-73
2022/04/28 00:31:22;;;;;;;7.97;3.28;;;;;;;14.18;60.40;95409.91;5045297;28;20020;-73
2022/04/28 00:33:48;;;;;;;5.25;2.70;;;;;;;14.18;60.39;95401.81;5061898;28;20021;-74
2022/04/28 00:36:14;;;;;;;6.18;3.00;;;;;;;14.15;60.72;95412.16;5062211;28;20108;-73
2022/04/28 00:38:39;;;;;;;5.15;3.38;;;;;;;14.12;60.58;95410.72;5062495;28;20530;-74
2022/04/28 00:41:05;;;;;;;5.90;2.95;;;;;;;14.11;60.06;95409.03;5063117;28;20033;-73
2022/04/28 00:43:31;;;;;;;5.60;2.42;;;;;;;14.14;59.89;95413.19;5029139;28;20052;-72
2022/04/28 00:45:57;;;;;;;4.43;2.63;;;;;;;14.16;59.76;95421.91;5064222;28;20120;-74
2022/04/28 00:51:07;;;;;;;7.57;3.13;;;;;;;14.06;60.04;95417.72;5065891;28;20516;-72
2022/04/28 00:53:34;;;;;;;3.40;2.83;;;;;;;14.02;60.34;95413.75;5048554;28;20028;-73
2022/04/28 00:56:00;;;;;;;5.85;2.70;;;;;;;14.03;60.25;95411.88;5065209;28;20064;-73
2022/04/28 00:58:25;;;;;;;5.25;3.05;;;;;;;14.03;60.20;95410.03;5066853;28;20106;-73
2022/04/28 01:00:53;;;;;;;6.13;3.00;;;;;;;14.06;60.20;95416.88;5066036;28;20119;-73
2022/04/28 01:03:19;;;;;;;7.10;2.95;;;;;;;14.09;60.19;95417.31;5048646;28;20060;-75
2022/04/28 01:05:44;;;;;;;7.63;3.58;;;;;;;14.06;60.47;95420.41;5065628;28;20119;-74
2022/04/28 01:08:09;;;;;;;9.73;4.10;;;;;;;14.02;60.83;95416.47;5047256;28;20021;-74
2022/04/28 01:10:35;;;;;;;7.10;5.05;;;;;;;13.94;61.37;95419.31;5046812;28;20029;-73
2022/04/28 01:13:00;;;;;;;6.57;3.80;;;;;;;13.91;61.75;95417.81;5047900;28;20465;-73
2022/04/28 01:15:26;;;;;;;5.68;3.80;;;;;;;13.83;61.74;95421.50;5047628;28;20501;-74
2022/04/28 01:17:51;;;;;;;9.35;4.70;;;;;;;13.82;61.80;95429.81;5066996;28;20024;-73
2022/04/28 01:20:17;;;;;;;6.38;4.13;;;;;;;13.77;62.29;95424.16;5064975;28;20020;-73
2022/04/28 01:22:42;;;;;;;10.52;4.90;;;;;;;13.76;62.04;95423.34;5048693;28;20086;-72
2022/04/28 01:25:08;;;;;;;5.53;4.78;;;;;;;13.71;62.68;95425.78;5065330;28;20430;-72
2022/04/28 01:27:35;;;;;;;7.45;5.25;;;;;;;13.68;62.83;95435.13;5065092;28;20055;-72
2022/04/28 01:30:00;;;;;;;7.82;4.72;;;;;;;13.76;62.30;95438.69;5047243;28;20024;-73
2022/04/28 01:32:26;;;;;;;8.23;5.20;;;;;;;13.66;63.27;95429.09;5064266;28;20470;-74
2022/04/28 01:34:51;;;;;;;6.07;4.53;;;;;;;13.65;63.45;95438.22;5049198;28;20053;-72
2022/04/28 01:37:17;;;;;;;7.82;4.50;;;;;;;13.71;62.77;95442.81;5062533;28;20483;-72
2022/04/28 01:39:43;;;;;;;8.60;4.40;;;;;;;13.72;62.58;95444.47;5067086;28;20023;-73
2022/04/28 01:42:08;;;;;;;5.70;4.00;;;;;;;13.74;62.78;95451.50;5046230;28;20025;-73
2022/04/28 01:44:35;;;;;;;10.27;3.92;;;;;;;13.78;62.45;95442.03;5065663;28;20052;-73
2022/04/28 01:47:01;;;;;;;8.35;4.10;;;;;;;13.76;62.71;95438.69;5045377;28;20422;-74
2022/04/28 01:49:27;;;;;;;7.80;4.30;;;;;;;13.71;63.14;95437.41;5065698;28;20418;-74
2022/04/28 01:57:21;;;;;;;9.38;4.15;;;;;;;13.75;63.14;95448.63;5062443;28;20036;-73
2022/04/28 01:59:46;;;;;;;8.30;4.32;;;;;;;13.75;63.36;95448.63;5046322;28;20025;-72
2022/04/28 02:02:12;;;;;;;7.07;4.97;;;;;;;13.76;63.49;95449.47;5064845;28;20017;-72
2022/04/28 02:04:38;;;;;;;7.95;4.45;;;;;;;13.71;63.86;95453.59;5064619;28;20103;-72
2022/04/28 02:07:04;;;;;;;8.82;5.10;;;;;;;13.61;64.63;95457.66;5062968;28;20411;-72
2022/04/28 02:09:29;;;;;;;7.53;4.68;;;;;;;13.58;64.68;95448.09;5064532;28;20045;-71
2022/04/28 02:11:54;;;;;;;11.27;5.28;;;;;;;13.58;64.88;95458.88;5047323;28;20527;-73
2022/04/28 02:14:20;;;;;;;11.52;5.05;;;;;;;13.59;64.75;95455.97;5047227;28;20028;-72
2022/04/28 02:16:45;;;;;;;14.57;5.05;;;;;;;13.60;64.55;95454.13;5061396;28;20040;-72
2022/04/28 02:19:11;;;;;;;9.05;5.07;;;;;;;13.68;64.19;95454.00;5065701;28;20035;-74
2022/04/28 02:21:36;;;;;;;8.02;4.63;;;;;;;13.76;63.97;95458.41;5064087;28;20024;-73
2022/04/28 02:24:02;;;;;;;6.07;4.00;;;;;;;13.78;64.10;95452.81;5063481;28;20043;-73
2022/04/28 02:26:27;;;;;;;7.60;4.85;;;;;;;13.72;64.29;95454.41;5045262;28;20056;-75
2022/04/28 02:28:53;;;;;;;9.70;4.63;;;;;;;13.64;64.56;95458.09;5064634;28;20396;-74
2022/04/28 02:31:18;;;;;;;9.50;4.60;;;;;;;13.61;64.68;95457.66;5065766;28;20036;-72
2022/04/28 02:33:43;;;;;;;6.38;4.90;;;;;;;13.68;64.24;95454.00;5062634;28;20059;-74
2022/04/28 02:36:09;;;;;;;8.65;5.28;;;;;;;13.73;64.13;95458.78;5065090;28;20396;-73
2022/04/28 02:38:35;;;;;;;10.60;4.90;;;;;;;13.77;64.40;95456.50;5064506;28;20032;-73
2022/04/28 02:41:00;;;;;;;8.52;5.25;;;;;;;13.70;65.06;95461.88;5063303;28;20432;-73
2022/04/28 02:43:25;;;;;;;11.05;5.32;;;;;;;13.65;65.37;95459.78;5046238;28;20546;-73
2022/04/28 02:45:51;;;;;;;8.27;4.80;;;;;;;13.63;65.31;95471.75;5062298;28;20502;-74
2022/04/28 02:48:16;;;;;;;6.35;4.53;;;;;;;13.59;65.68;95463.22;5064579;28;20031;-74
2022/04/28 02:50:42;;;;;;;6.78;4.72;;;;;;;13.62;65.64;95476.34;5062808;28;20403;-72
2022/04/28 02:53:07;;;;;;;9.18;4.97;;;;;;;13.61;65.82;95473.84;5063828;28;20032;-73
2022/04/28 02:55:33;;;;;;;11.40;5.78;;;;;;;13.61;65.91;95474.66;5063077;28;20077;-73
2022/04/28 02:57:58;;;;;;;6.93;4.63;;;;;;;13.62;66.06;95478.19;5063091;28;20025;-73
2022/04/28 03:00:23;;;;;;;6.72;5.20;;;;;;;13.65;65.98;95475.94;5063738;28;20027;-72
2022/04/28 03:02:49;;;;;;;7.40;4.93;;;;;;;13.69;65.86;95468.28;5063211;28;20028;-73
2022/04/28 03:05:14;;;;;;;5.88;4.68;;;;;;;13.69;66.00;95477.19;5064037;28;20029;-74
2022/04/28 03:10:50;;;;;;;7.00;5.10;;;;;;;13.78;66.10;95485.16;5064023;28;20043;-73
2022/04/28 03:13:17;;;;;;;6.63;5.88;;;;;;;13.80;65.89;95483.91;5064041;28;20031;-73
2022/04/28 03:15:45;;;;;;;5.93;5.32;;;;;;;13.82;66.02;95487.25;5063161;28;20311;-73
2022/04/28 03:18:11;;;;;;;6.90;6.05;;;;;;;13.84;66.15;95492.44;5063959;28;20487;-73
2022/04/28 03:20:36;;;;;;;7.28;6.53;;;;;;;13.84;66.12;95489.75;5062786;28;20072;-73
2022/04/28 03:23:02;;;;;;;6.75;6.00;;;;;;;13.80;66.40;95489.31;5064118;28;20467;-74
2022/04/28 03:25:27;;;;;;;8.95;6.72;;;;;;;13.83;66.12;95504.28;5063398;28;20032;-73
2022/04/28 03:27:56;;;;;;;9.07;7.22;;;;;;;13.78;66.43;95502.16;5063194;28;20029;-74
2022/04/28 03:30:21;;;;;;;8.32;7.13;;;;;;;13.71;66.86;95499.41;5063630;28;20029;-74
2022/04/28 03:32:47;;;;;;;9.38;7.57;;;;;;;13.67;67.05;95516.97;5063092;28;20483;-74
2022/04/28 03:35:12;;;;;;;8.82;6.70;;;;;;;13.61;67.02;95508.88;5063859;28;20496;-72
2022/04/28 03:37:38;;;;;;;8.63;7.15;;;;;;;13.62;67.19;95513.22;5063276;28;20460;-74
2022/04/28 03:40:03;;;;;;;9.85;7.45;;;;;;;13.62;67.40;95521.31;5064632;28;20016;-74
2022/04/28 03:42:29;;;;;;;8.38;7.35;;;;;;;13.52;67.54;95521.63;5044829;28;20047;-74
2022/04/28 03:44:54;;;;;;;10.88;7.88;;;;;;;13.49;67.48;95528.22;5064781;28;20041;-73
2022/04/28 03:47:21;;;;;;;10.45;8.15;;;;;;;13.40;67.89;95540.97;5046246;28;20025;-75
2022/04/28 03:49:46;;;;;;;12.27;8.57;;;;;;;13.35;68.24;95530.78;5046307;28;20883;-72
2022/04/28 03:52:12;;;;;;;9.15;7.97;;;;;;;13.36;68.31;95537.00;5046038;28;20020;-72
2022/04/28 03:54:37;;;;;;;12.88;6.97;;;;;;;13.36;68.32;95537.00;5046033;28;20089;-74
2022/04/28 03:57:03;;;;;;;8.38;7.10;;;;;;;13.36;67.97;95534.31;5065218;28;20051;-73
2022/04/28 03:59:28;;;;;;;8.13;7.32;;;;;;;13.32;68.21;95531.16;5045945;28;20056;-72
2022/04/28 04:01:54;;;;;;;8.30;7.05;;;;;;;13.30;68.50;95533.19;5065745;28;20020;-72
2022/04/28 04:04:19;;;;;;;10.18;6.97;;;;;;;13.29;68.76;95531.53;5045862;28;20023;-74
2022/04/28 04:06:45;;;;;;;11.02;7.15;;;;;;;13.22;68.51;95536.84;5064744;28;20033;-73
2022/04/28 04:09:10;;;;;;;9.25;6.97;;;;;;;13.16;68.70;95548.41;5064018;28;20028;-74
2022/04/28 04:11:35;;;;;;;7.53;5.63;;;;;;;13.08;68.72;95543.13;5063893;28;20479;-74
2022/04/28 04:14:01;;;;;;;7.05;5.10;;;;;;;13.01;68.65;95545.72;5045695;28;20029;-74
2022/04/28 04:16:26;;;;;;;6.25;5.10;;;;;;;13.00;68.75;95545.91;5038851;28;20467;-73
2022/04/28 04:18:52;;;;;;;5.78;4.30;;;;;;;12.94;68.64;95551.06;5047737;28;20037;-74
2022/04/28 04:21:19;;;;;;;6.47;4.50;;;;;;;12.88;68.77;95540.22;5029324;28;20029;-74
2022/04/28 04:23:44;;;;;;;8.88;4.93;;;;;;;12.84;68.86;95540.59;5048601;28;20090;-73
2022/04/28 04:26:10;;;;;;;6.03;4.00;;;;;;;12.83;68.46;95546.16;5053433;28;20032;-73
2022/04/28 04:28:35;;;;;;;5.22;3.40;;;;;;;12.79;68.52;95552.94;5066071;28;20033;-73
2022/04/28 04:33:45;;;;;;;3.05;2.40;;;;;;;12.64;67.94;95552.97;5058376;28;20089;-74
2022/04/28 04:36:10;;;;;;;3.75;2.55;;;;;;;12.57;68.00;95540.25;5066319;28;20040;-74
2022/04/28 04:38:35;;;;;;;5.55;2.40;;;;;;;12.45;68.38;95547.09;5044721;28;20032;-75
2022/04/28 04:41:01;;;;;;;5.82;2.03;;;;;;;12.43;68.42;95551.84;5028550;28;20028;-73
2022/04/28 04:43:26;;;;;;;2.60;1.92;;;;;;;12.39;68.11;95556.78;5058922;28;20048;-73
2022/04/28 04:45:52;;;;;;;3.47;2.00;;;;;;;12.36;68.24;95557.97;5064006;28;20035;-72
2022/04/28 04:48:17;;;;;;;2.40;1.80;;;;;;;12.30;68.26;95560.56;5013302;28;20036;-77
2022/04/28 04:50:43;;;;;;;4.07;2.05;;;;;;;12.28;68.68;95568.81;5047214;28;20454;-74
2022/04/28 04:53:08;;;;;;;3.42;1.60;;;;;;;12.18;68.73;95566.41;5047429;28;20029;-71
2022/04/28 04:55:34;;;;;;;5.10;1.70;;;;;;;12.23;68.67;95572.06;5046101;28;20028;-73
2022/04/28 04:57:59;;;;;;;2.47;1.60;;;;;;;12.19;68.25;95569.91;5027047;28;20016;-73
2022/04/28 05:00:25;;;;;;;4.63;1.70;;;;;;;12.17;68.37;95570.09;5042359;28;20028;-72
2022/04/28 05:02:50;;;;;;;2.53;1.40;;;;;;;12.13;68.24;95576.88;5047628;28;20107;-71
2022/04/28 05:05:16;;;;;;;4.22;1.20;;;;;;;12.04;68.32;95578.75;5060170;28;20029;-72
2022/04/28 05:07:42;;;;;;;2.47;1.10;;;;;;;12.01;68.46;95572.94;5059589;28;20025;-72
2022/04/28 05:10:07;;;;;;;2.08;1.20;;;;;;;11.93;68.77;95585.41;5066138;28;20029;-74
2022/04/28 05:12:33;;;;;;;2.10;1.15;;;;;;;11.95;68.65;95591.44;5045308;28;20454;-73
2022/04/28 05:14:58;;;;;;;4.32;1.10;;;;;;;11.96;68.77;95590.41;5066411;28;20021;-75
2022/04/28 05:17:24;;;;;;;2.75;1.10;;;;;;;11.94;68.40;95595.16;5064243;28;20054;-75
2022/04/28 05:19:49;;;;;;;3.47;1.10;;;;;;;11.90;68.24;95596.53;5066532;28;20051;-76
2022/04/28 05:22:14;;;;;;;2.33;0.90;;;;;;;11.83;68.12;95599.09;5047847;28;20844;-74
2022/04/28 05:24:40;;;;;;;1.55;1.00;;;;;;;11.82;68.51;95597.44;5031887;28;20047;-74
2022/04/28 05:27:05;;;;;;;1.77;1.05;;;;;;;11.71;68.83;95608.59;5066170;28;20415;-75
2022/04/28 05:29:31;;;;;;;1.85;0.98;;;;;;;11.65;68.93;95603.94;5047988;28;20093;-75
2022/04/28 05:31:56;;;;;;;2.08;1.02;;;;;;;11.65;69.45;95615.53;5065440;28;20025;-75
2022/04/28 05:34:21;;;;;;;4.50;1.02;;;;;;;11.59;69.61;95608.22;5048350;28;20028;-77
2022/04/28 05:36:48;;;;;;;1.90;0.90;;;;;;;11.65;69.18;95620.06;5048909;28;20020;-75
2022/04/28 05:39:14;;;;;;;1.95;0.90;;;;;;;11.63;69.42;95620.25;5048133;28;20060;-74
2022/04/28 05:41:39;;;;;;;3.42;2.20;;;;;;;11.62;69.66;95616.72;5049227;28;20568;-75
2022/04/28 05:46:51;;;;;;;2.83;1.20;;;;;;;11.57;69.66;95627.19;5037386;28;20032;-75
2022/04/28 05:49:16;;;;;;;5.20;1.08;;;;;;;11.52;69.85;95636.78;5032963;28;20040;-75
2022/04/28 05:51:41;;;;;;;5.45;1.08;;;;;;;11.48;70.42;95647.88;5031443;28;20028;-74
2022/04/28 05:54:07;;;;;;;2.97;0.90;;;;;;;11.48;70.72;95639.81;5067109;28;20031;-74
2022/04/28 05:56:32;;;;;;;1.85;0.98;;;;;;;11.46;70.34;95632.97;5065856;28;20025;-77
2022/04/28 05:58:57;;;;;;;2.80;0.70;;;;;;;11.36;70.81;95635.88;5048822;28;20051;-75
2022/04/28 06:01:23;;;;;;;1.27;0.73;;;;;;;11.37;70.54;95645.59;5066020;28;20032;-75
2022/04/28 06:03:48;;;;;;;1.67;0.77;;;;;;;11.35;70.93;95644.94;5048110;28;20082;-74
2022/04/28 06:06:14;;;;;;;1.50;0.70;;;;;;;11.37;71.17;95642.91;5048475;28;20043;-75
2022/04/28 06:08:39;;;;;;;2.35;0.75;;;;;;;11.36;70.96;95646.63;5031167;28;20031;-74
2022/04/28 06:11:05;;;;;;;2.00;0.70;;;;;;;11.38;70.89;95655.34;5048375;28;20028;-74
2022/04/28 06:13:30;;;;;;;1.17;0.60;;;;;;;11.32;71.08;95643.44;5047491;28;20063;-75
2022/04/28 06:15:56;;;;;;;1.58;0.77;;;;;;;11.35;71.11;95648.47;5031991;28;20020;-75
2022/04/28 06:18:21;;;;;;;5.45;1.17;;;;;;;11.35;71.42;95659.19;5030977;28;20407;-74
2022/04/28 06:20:47;;;;;;;1.60;0.80;;;;;;;11.33;71.42;95653.16;5048596;28;20028;-75
2022/04/28 06:23:12;;;;;;;2.58;0.90;;;;;;;11.28;71.53;95649.34;5030968;28;20024;-75
2022/04/28 06:25:38;;;;;;;1.00;0.60;;;;;;;11.31;71.83;95654.34;5065432;28;20076;-76
2022/04/28 06:28:04;;;;;;;3.72;0.70;;;;;;;11.28;71.91;95652.88;5048328;28;20021;-77
2022/04/28 06:30:29;;;;;;;3.15;1.67;;;;;;;11.28;72.01;95650.19;5047494;28;20025;-75
2022/04/28 06:32:55;;;;;;;2.10;0.90;;;;;;;11.27;72.31;95653.88;5048324;28;20407;-76
2022/04/28 06:35:20;;;;;;;3.83;0.80;;;;;;;11.31;72.56;95654.34;5030386;28;20388;-75
2022/04/28 06:37:45;;;;;;;5.88;1.02;;;;;;;11.34;72.43;95659.38;5048632;28;20021;-76
2022/04/28 06:40:12;;;;;;;2.00;0.80;;;;;;;11.37;72.50;95659.88;5064590;28;20028;-75
2022/04/28 06:42:43;;;;;;;1.65;0.82;;;;;;;11.40;72.22;95657.84;5065294;28;20024;-75
2022/04/28 06:45:10;;;;;;;3.90;0.75;;;;;;;11.42;72.36;95667.38;5047597;28;20112;-75
2022/04/28 06:47:35;;;;;;;1.52;0.95;;;;;;;11.38;72.77;95669.59;5030641;28;20476;-75
2022/04/28 06:50:01;;;;;;;1.42;0.93;;;;;;;11.38;72.68;95668.78;5065732;28;20025;-73
2022/04/28 06:52:26;;;;;;;2.55;0.82;;;;;;;11.43;72.21;95673.59;5064701;28;20020;-75
2022/04/28 06:54:52;;;;;;;1.35;0.70;;;;;;;11.44;71.77;95665.38;5065928;28;20446;-74
2022/04/28 06:57:17;;;;;;;1.77;0.90;;;;;;;11.31;72.41;95665.09;5046544;28;20032;-74
2022/04/28 06:59:43;;;;;;;1.60;0.70;;;;;;;11.31;72.03;95665.09;5031258;28;20027;-74
2022/04/28 07:02:09;;;;;;;1.30;0.80;;;;;;;11.35;72.23;95678.00;5046780;28;20031;-74
2022/04/28 07:04:34;;;;;;;1.50;0.82;;;;;;;11.36;72.20;95676.16;5046681;28;20025;-75
2022/04/28 07:07:00;;;;;;;2.40;0.90;;;;;;;11.34;72.03;95673.66;5065849;28;20048;-76
2022/04/28 07:09:25;;;;;;;4.82;0.90;;;;;;;11.33;72.36;95671.13;5064203;28;20024;-73
2022/04/28 07:11:50;;;;;;;3.35;1.30;;;;;;;11.38;72.10;95671.47;5047388;28;20431;-74
2022/04/28 07:14:16;;;;;;;1.90;1.00;;;;;;;11.38;72.13;95674.13;5046276;28;20491;-75
2022/04/28 07:16:42;;;;;;;2.20;0.90;;;;;;;11.35;72.62;95675.31;5065643;28;20399;-75
2022/04/28 07:19:08;;;;;;;3.20;1.20;;;;;;;11.42;72.38;95683.50;5064382;28;20028;-74
2022/04/28 07:21:34;;;;;;;4.40;1.00;;;;;;;11.43;72.08;95679.78;5047156;28;20039;-74
2022/04/28 07:24:00;;;;;;;2.60;1.02;;;;;;;11.48;72.39;95687.31;5030645;28;20499;-76
2022/04/28 07:26:25;;;;;;;2.25;1.10;;;;;;;11.50;72.13;95690.69;5029658;28;20111;-73
2022/04/28 07:28:50;;;;;;;2.67;1.10;;;;;;;11.58;72.07;95689.78;5065306;28;20027;-74
2022/04/28 07:31:16;;;;;;;1.70;1.00;;;;;;;11.60;71.78;95685.94;5063790;28;20037;-75
2022/04/28 07:33:41;;;;;;;1.85;1.08;;;;;;;11.64;71.38;95683.69;5064334;28;20754;-77
2022/04/28 07:36:07;;;;;;;2.38;1.08;;;;;;;11.71;71.24;95692.75;5064160;28;20024;-76
2022/04/28 07:38:33;;;;;;;2.40;0.90;;;;;;;11.74;71.04;95689.69;5062458;28;20025;-78
2022/04/28 07:41:00;;;;;;;4.05;1.20;;;;;;;11.84;70.36;95694.00;5024043;28;20047;-76
2022/04/28 07:43:26;;;;;;;2.40;1.30;;;;;;;11.85;70.26;95687.59;5025165;28;20505;-74
2022/04/28 07:45:51;;;;;;;1.70;1.25;;;;;;;11.89;70.54;95688.09;5061594;28;20521;-75
2022/04/28 07:48:16;;;;;;;1.98;1.30;;;;;;;11.84;70.38;95697.53;5063653;28;20055;-75
2022/04/28 07:50:42;;;;;;;2.47;1.25;;;;;;;11.89;69.73;95697.00;5045861;28;20403;-75
2022/04/28 07:53:07;;;;;;;3.72;1.10;;;;;;;11.87;69.61;95690.94;5062490;28;20036;-75
2022/04/28 07:55:33;;;;;;;2.10;1.10;;;;;;;11.88;69.91;95692.66;5062596;28;20020;-77
2022/04/28 07:57:58;;;;;;;4.75;1.55;;;;;;;11.85;69.66;95692.97;5023811;28;20477;-77
2022/04/28 08:00:24;;;;;;;2.25;1.30;;;;;;;11.82;69.99;95706.75;5060134;28;20472;-77
2022/04/28 08:02:49;;;;;;;2.58;1.02;;;;;;;11.87;69.85;95701.69;5059309;28;20477;-75
2022/04/28 08:05:15;;;;;;;2.25;1.50;;;;;;;11.96;69.94;95705.19;5037004;28;20032;-75
2022/04/28 08:07:40;;;;;;;5.40;1.60;;;;;;;11.94;69.92;95705.38;5061028;28;20028;-75
2022/04/28 08:10:06;;;;;;;3.92;1.33;;;;;;;11.99;69.55;95704.81;5056899;28;20041;-77
2022/04/28 08:12:33;;;;;;;2.65;1.33;;;;;;;12.05;69.31;95701.41;5009946;28;20029;-74
2022/04/28 08:14:58;;;;;;;2.95;1.15;;;;;;;12.07;69.00;95709.28;5005438;28;20021;-76
2022/04/28 08:17:24;;;;;;;2.15;1.40;;;;;;;12.07;68.98;95709.28;5028915;28;20404;-75
2022/04/28 08:19:49;;;;;;;2.95;1.58;;;;;;;12.13;68.72;95711.28;5061436;28;20033;-77
2022/04/28 08:22:15;;;;;;;2.00;1.25;;;;;;;12.20;68.77;95711.41;5029177;28;20036;-75
2022/04/28 08:24:40;;;;;;;4.38;1.30;;;;;;;12.28;68.32;95718.56;5010917;28;20039;-75
2022/04/28 08:27:06;;;;;;;2.85;0.88;;;;;;;12.31;67.88;95720.91;5026451;28;20029;-76
2022/04/28 08:29:31;;;;;;;2.55;0.85;;;;;;;12.35;67.50;95714.13;5046025;28;20510;-76
2022/04/28 08:31:57;;;;;;;3.65;1.02;;;;;;;12.30;67.79;95712.00;5043335;28;20021;-78
2022/04/28 08:34:22;;;;;;;2.05;1.30;;;;;;;12.35;67.74;95719.50;5024094;28;20016;-75
2022/04/28 08:36:48;;;;;;;2.28;1.20;;;;;;;12.34;67.44;95720.53;5009888;28;20028;-76
2022/04/28 08:39:13;;;;;;;2.22;1.17;;;;;;;12.37;67.89;95714.78;5024446;28;20033;-76
2022/04/28 08:41:42;;;;;;;2.00;1.10;;;;;;;12.36;67.24;95719.31;5057304;28;20032;-75
2022/04/28 08:44:11;;;;;;;4.07;1.50;;;;;;;12.32;67.09;95722.56;5043813;28;20048;-75
2022/04/28 08:46:52;;;;;;;2.88;1.33;;;;;;;12.38;67.40;95719.16;5028070;28;20109;-75
2022/04/28 08:49:24;;;;;;;4.70;1.25;;;;;;;12.42;67.33;95720.47;5042049;28;20028;-75
2022/04/28 08:51:50;;;;;;;2.17;1.20;;;;;;;12.43;66.87;95718.63;5046225;28;20028;-75
2022/04/28 08:54:16;;;;;;;3.35;1.50;;;;;;;12.44;66.96;95723.81;5042965;28;20043;-74
2022/04/28 08:56:42;;;;;;;2.85;1.40;;;;;;;12.47;67.13;95722.63;5043250;28;20017;-74
2022/04/28 08:59:07;;;;;;;2.08;1.30;;;;;;;12.52;66.66;95724.75;5059631;28;20049;-76
2022/04/28 09:01:33;;;;;;;3.08;1.40;;;;;;;12.55;66.24;95721.69;5045278;28;20111;-76
2022/04/28 09:03:59;;;;;;;2.05;1.30;;;;;;;12.57;65.88;95722.38;5027255;28;20017;-75
2022/04/28 09:06:30;;;;;;;1.80;1.20;;;;;;;12.60;65.86;95722.00;5043773;28;20037;-75
2022/04/28 09:08:58;;;;;;;2.70;1.48;;;;;;;12.61;65.55;95723.66;5012789;28;20070;-74
2022/04/28 09:11:28;;;;;;;2.30;1.60;;;;;;;12.59;65.75;95725.72;5044699;28;20028;-74
2022/04/28 09:14:09;;;;;;;6.00;1.75;;;;;;;12.67;65.42;95716.72;5033495;28;20487;-75
2022/04/28 09:16:41;;;;;;;2.63;1.50;;;;;;;12.73;65.41;95732.94;5047704;28;20111;-74
2022/04/28 09:19:06;;;;;;;5.03;1.75;;;;;;;12.72;65.25;95742.06;5064244;28;20067;-74
2022/04/28 09:21:35;;;;;;;3.20;1.88;;;;;;;12.72;65.09;95727.75;5031466;28;20056;-75
2022/04/28 09:24:01;;;;;;;2.65;1.70;;;;;;;12.74;65.26;95728.41;5030435;28;20093;-78
2022/04/28 09:26:27;;;;;;;2.80;1.60;;;;;;;12.79;65.59;95726.00;5062281;28;20030;-74
2022/04/28 09:28:57;;;;;;;3.22;1.83;;;;;;;12.84;65.32;95734.38;5044508;28;20135;-74
2022/04/28 09:31:23;;;;;;;3.72;2.60;;;;;;;12.87;65.13;95722.41;5042706;28;20543;-74
2022/04/28 09:33:49;;;;;;;5.40;2.50;;;;;;;12.98;65.02;95730.03;5047020;28;20047;-74
2022/04/28 09:36:14;;;;;;;6.10;2.35;;;;;;;13.02;64.77;95729.66;5039142;28;20380;-74
2022/04/28 09:38:40;;;;;;;3.05;2.25;;;;;;;13.07;64.23;95727.25;5048299;28;20040;-75
2022/04/28 09:43:53;;;;;;;5.15;2.90;;;;;;;13.14;64.28;95725.47;5037441;28;20570;-74
2022/04/28 09:46:23;;;;;;;3.42;2.72;;;;;;;13.14;63.91;95721.97;5063660;28;20527;-74
2022/04/28 09:48:49;;;;;;;6.35;3.70;;;;;;;13.18;64.13;95729.47;5065689;28;20529;-75
2022/04/28 09:51:19;;;;;;;4.43;3.05;;;;;;;13.25;63.69;95723.34;5026097;28;20052;-74
2022/04/28 09:53:45;;;;;;;3.50;2.90;;;;;;;13.28;63.44;95728.34;5028685;28;20020;-74
2022/04/28 09:56:10;;;;;;;4.75;2.85;;;;;;;13.36;63.58;95725.56;5027016;28;20028;-75
2022/04/28 09:58:38;;;;;;;10.15;3.33;;;;;;;13.45;63.42;95721.75;5044634;28;20036;-75
2022/04/28 10:01:04;;;;;;;3.63;2.85;;;;;;;13.52;63.27;95712.94;5046869;28;20036;-77
2022/04/28 10:03:39;;;;;;;9.10;6.22;;;;;;;13.63;62.62;95715.16;5022661;28;20770;-77
2022/04/28 10:06:05;;;;;;;5.72;4.20;;;;;;;13.65;62.42;95721.19;5030657;28;20028;-76
2022/04/28 10:08:34;;;;;;;3.63;2.60;;;;;;;13.63;62.54;95722.38;5029930;28;20024;-76
2022/04/28 10:11:01;;;;;;;5.20;3.50;;;;;;;13.63;62.49;95720.53;5046759;28;20040;-79
2022/04/28 10:13:28;;;;;;;4.57;3.92;;;;;;;13.70;62.72;95721.44;5030390;28;20025;-77
2022/04/28 10:16:06;;;;;;;3.90;3.15;;;;;;;13.77;62.28;95723.38;5063220;28;20032;-74
2022/04/28 10:18:45;;;;;;;8.07;3.40;;;;;;;13.82;62.02;95718.25;5028083;28;20031;-75
2022/04/28 10:21:14;;;;;;;4.45;2.80;;;;;;;13.83;61.78;95714.53;5031051;28;20024;-78
2022/04/28 10:35:02;;;;;;;4.72;3.28;;;;;;;13.96;61.30;95719.25;5033311;28;20093;-76
2022/04/28 10:37:41;;;;;;;3.40;2.90;;;;;;;13.88;61.47;95711.28;5060170;28;20028;-76
2022/04/28 10:40:11;;;;;;;5.30;3.50;;;;;;;13.89;61.31;95719.16;5032349;28;20611;-76
2022/04/28 10:42:37;;;;;;;3.60;2.63;;;;;;;13.90;61.66;95718.13;5044164;28;20051;-77
2022/04/28 10:45:05;;;;;;;3.70;3.10;;;;;;;13.92;61.72;95712.53;5063771;28;20045;-76
2022/04/28 10:47:34;;;;;;;7.13;4.10;;;;;;;13.94;60.98;95710.50;5045889;28;20032;-76
2022/04/28 10:50:00;;;;;;;5.70;3.85;;;;;;;14.03;60.77;95721.97;5060051;28;20089;-76
2022/04/28 10:52:26;;;;;;;7.63;4.20;;;;;;;13.93;60.91;95706.97;5047550;28;20486;-77
2022/04/28 10:54:53;;;;;;;5.70;3.90;;;;;;;13.98;60.92;95714.47;5043282;28;20029;-77
2022/04/28 10:57:19;;;;;;;6.15;4.22;;;;;;;14.09;60.33;95705.03;5065102;28;20028;-76
2022/04/28 10:59:48;;;;;;;5.03;4.05;;;;;;;14.18;59.89;95705.75;5028505;28;20029;-75
2022/04/28 11:02:36;;;;;;;4.63;3.47;;;;;;;14.20;59.86;95706.41;5063433;28;20115;-76
2022/04/28 11:05:04;;;;;;;7.35;4.32;;;;;;;14.19;60.09;95704.72;5027232;28;20043;-77
2022/04/28 11:07:31;;;;;;;6.18;4.10;;;;;;;14.27;59.84;95701.03;5029911;28;20047;-76
2022/04/28 11:10:01;;;;;;;5.13;3.90;;;;;;;14.41;59.63;95705.53;5045090;28;20170;-77
2022/04/28 11:12:34;;;;;;;5.07;3.70;;;;;;;14.51;59.11;95696.28;5045390;28;20109;-78
2022/04/28 11:15:03;;;;;;;5.35;4.10;;;;;;;14.48;58.76;95700.19;5044983;28;20032;-77
2022/04/28 11:17:32;;;;;;;6.90;4.55;;;;;;;14.55;59.29;95705.66;5045680;28;20458;-77
2022/04/28 11:20:04;;;;;;;6.90;4.18;;;;;;;14.58;59.19;95694.47;5047091;28;20024;-75
2022/04/28 11:22:30;;;;;;;5.63;4.40;;;;;;;14.66;58.52;95704.28;5063196;28;20024;-77
2022/04/28 11:24:56;;;;;;;6.60;4.68;;;;;;;14.71;58.92;95702.69;5027558;28;20317;-75
2022/04/28 11:27:23;;;;;;;6.30;4.07;;;;;;;14.79;58.75;95698.13;5010958;28;20037;-75
2022/04/28 11:29:49;;;;;;;6.53;4.25;;;;;;;14.91;58.18;95696.59;5046012;28;20111;-75
2022/04/28 11:32:15;;;;;;;6.20;4.35;;;;;;;15.00;58.39;95693.72;5046493;28;20073;-74
2022/04/28 11:34:43;;;;;;;6.07;3.60;;;;;;;15.01;58.12;95693.53;5026228;28;20040;-78
2022/04/28 11:37:25;;;;;;;6.57;3.92;;;;;;;15.01;58.01;95698.13;5045601;28;20028;-77
2022/04/28 11:39:52;;;;;;;5.87;3.90;;;;;;;15.05;57.63;95696.69;5026542;28;20111;-75
2022/04/28 11:42:18;;;;;;;7.07;3.97;;;;;;;14.95;57.62;95694.34;5029488;28;20182;-75
2022/04/28 11:44:53;;;;;;;4.45;3.70;;;;;;;14.90;58.02;95692.22;5027994;28;20127;-76
2022/04/28 11:47:19;;;;;;;5.25;3.90;;;;;;;15.04;57.48;95695.03;5029975;28;20048;-76
2022/04/28 11:49:45;;;;;;;4.20;3.28;;;;;;;15.11;57.02;95692.34;5045788;28;20052;-76
2022/04/28 11:52:23;;;;;;;5.35;3.33;;;;;;;15.12;57.19;95694.03;5057412;28;20032;-76
2022/04/28 11:54:56;;;;;;;4.88;3.42;;;;;;;15.22;56.75;95678.25;5039776;28;20032;-75
2022/04/28 11:57:22;;;;;;;4.97;3.83;;;;;;;15.36;56.58;95686.44;5036613;28;20052;-75
2022/04/28 11:59:48;;;;;;;5.00;3.70;;;;;;;15.42;56.55;95682.94;5029475;28;20451;-79
2022/04/28 12:02:26;;;;;;;5.47;3.72;;;;;;;15.47;56.88;95685.03;5045108;28;20107;-75